sensor_id;sensor_type;location;lat;lon;timestamp;temperature;humidity
36442;DHT22;64346;50.820;16.274;2023-04-01T00:02:05;9.30;99.90
36442;DHT22;64346;50.820;16.274;2023-04-01T00:04:33;9.30;99.90
36442;DHT22;64346;50.820;16.274;2023-04-01T00:07:00;9.20;99.90
36442;DHT22;64346;50.820;16.274;2023-04-01T00:09:28;9.20;99.90
36442;DHT22;64346;50.820;16.274;2023-04-01T00:11:58;9.20;99.90
36442;DHT22;64346;50.820;16.274;2023-04-01T00:14:27;9.20;99.90
36442;DHT22;64346;50.820;16.274;2023-04-01T00:16:55;9.20;99.90
36442;DHT22;64346;50.820;16.274;2023-04-01T00:19:24;9.20;99.90
36442;DHT22;64346;50.820;16.274;2023-04-01T00:21:54;9.20;99.90
36442;DHT22;64346;50.820;16.274;2023-04-01T00:24:21;9.30;99.90
36442;DHT22;64346;50.820;16.274;2023-04-01T00:26:48;9.30;99.90
36442;DHT22;64346;50.820;16.274;2023-04-01T00:29:16;9.20;99.90
36442;DHT22;64346;50.820;16.274;2023-04-01T00:31:45;9.20;99.90
36442;DHT22;64346;50.820;16.274;2023-04-01T00:34:12;9.20;99.90
36442;DHT22;64346;50.820;16.274;2023-04-01T00:36:42;9.20;99.90
36442;DHT22;64346;50.820;16.274;2023-04-01T00:39:12;9.20;99.90
36442;DHT22;64346;50.820;16.274;2023-04-01T00:41:41;9.20;99.90
36442;DHT22;64346;50.820;16.274;2023-04-01T00:44:20;9.20;99.90
36442;DHT22;64346;50.820;16.274;2023-04-01T00:46:48;9.20;99.90
36442;DHT22;64346;50.820;16.274;2023-04-01T00:49:20;9.10;99.90
36442;DHT22;64346;50.820;16.274;2023-04-01T00:51:52;9.20;99.90
36442;DHT22;64346;50.820;16.274;2023-04-01T00:54:23;9.20;99.90
36442;DHT22;64346;50.820;16.274;2023-04-01T00:59:26;9.20;99.90
36442;DHT22;64346;50.820;16.274;2023-04-01T01:01:54;9.20;99.90
36442;DHT22;64346;50.820;16.274;2023-04-01T01:04:31;9.20;99.90
36442;DHT22;64346;50.820;16.274;2023-04-01T01:12:20;9.30;99.90
36442;DHT22;64346;50.820;16.274;2023-04-01T01:17:48;9.30;99.90
36442;DHT22;64346;50.820;16.274;2023-04-01T01:33:46;9.20;99.90
36442;DHT22;64346;50.820;16.274;2023-04-01T01:36:18;9.20;99.90
36442;DHT22;64346;50.820;16.274;2023-04-01T01:38:48;9.20;99.90
36442;DHT22;64346;50.820;16.274;2023-04-01T01:41:17;9.20;99.90
36442;DHT22;64346;50.820;16.274;2023-04-01T01:43:48;9.20;99.90
36442;DHT22;64346;50.820;16.274;2023-04-01T01:46:19;9.10;99.90
36442;DHT22;64346;50.820;16.274;2023-04-01T01:48:49;9.10;99.90
36442;DHT22;64346;50.820;16.274;2023-04-01T01:51:19;9.10;99.90
36442;DHT22;64346;50.820;16.274;2023-04-01T01:53:47;9.00;99.90
36442;DHT22;64346;50.820;16.274;2023-04-01T01:56:14;9.00;99.90
36442;DHT22;64346;50.820;16.274;2023-04-01T01:58:46;9.00;99.90
36442;DHT22;64346;50.820;16.274;2023-04-01T02:01:17;9.00;99.90
36442;DHT22;64346;50.820;16.274;2023-04-01T02:03:46;9.10;99.90
36442;DHT22;64346;50.820;16.274;2023-04-01T02:06:18;9.10;99.90
36442;DHT22;64346;50.820;16.274;2023-04-01T02:08:47;9.10;99.90
36442;DHT22;64346;50.820;16.274;2023-04-01T02:11:25;9.10;99.90
36442;DHT22;64346;50.820;16.274;2023-04-01T02:16:25;9.20;99.90
36442;DHT22;64346;50.820;16.274;2023-04-01T02:18:55;9.30;99.90
36442;DHT22;64346;50.820;16.274;2023-04-01T02:21:27;9.30;99.90
36442;DHT22;64346;50.820;16.274;2023-04-01T02:24:00;9.30;99.90
36442;DHT22;64346;50.820;16.274;2023-04-01T02:26:28;9.40;99.90
36442;DHT22;64346;50.820;16.274;2023-04-01T02:29:01;9.40;99.90
36442;DHT22;64346;50.820;16.274;2023-04-01T02:31:30;9.40;99.90
36442;DHT22;64346;50.820;16.274;2023-04-01T02:33:58;9.40;99.90
36442;DHT22;64346;50.820;16.274;2023-04-01T02:36:26;9.40;99.90
36442;DHT22;64346;50.820;16.274;2023-04-01T02:38:54;9.40;99.90
36442;DHT22;64346;50.820;16.274;2023-04-01T02:41:22;9.40;99.90
36442;DHT22;64346;50.820;16.274;2023-04-01T02:43:50;9.40;99.90
36442;DHT22;64346;50.820;16.274;2023-04-01T02:46:17;9.40;99.90
36442;DHT22;64346;50.820;16.274;2023-04-01T02:48:44;9.40;99.90
36442;DHT22;64346;50.820;16.274;2023-04-01T02:51:11;9.40;99.90
36442;DHT22;64346;50.820;16.274;2023-04-01T02:53:39;9.40;99.90
36442;DHT22;64346;50.820;16.274;2023-04-01T02:56:06;9.40;99.90
36442;DHT22;64346;50.820;16.274;2023-04-01T02:58:33;9.40;99.90
36442;DHT22;64346;50.820;16.274;2023-04-01T03:03:37;9.40;99.90
36442;DHT22;64346;50.820;16.274;2023-04-01T03:06:06;9.40;99.90
36442;DHT22;64346;50.820;16.274;2023-04-01T03:08:36;9.30;99.90
36442;DHT22;64346;50.820;16.274;2023-04-01T03:11:04;9.30;99.90
36442;DHT22;64346;50.820;16.274;2023-04-01T03:13:31;9.30;99.90
36442;DHT22;64346;50.820;16.274;2023-04-01T03:16:03;9.30;99.90
36442;DHT22;64346;50.820;16.274;2023-04-01T03:18:31;9.30;99.90
36442;DHT22;64346;50.820;16.274;2023-04-01T03:21:15;9.20;99.90
36442;DHT22;64346;50.820;16.274;2023-04-01T03:23:44;9.30;99.90
36442;DHT22;64346;50.820;16.274;2023-04-01T03:26:17;9.20;99.90
36442;DHT22;64346;50.820;16.274;2023-04-01T03:28:44;9.20;99.90
36442;DHT22;64346;50.820;16.274;2023-04-01T03:31:12;9.20;99.90
36442;DHT22;64346;50.820;16.274;2023-04-01T03:33:39;9.10;99.90
36442;DHT22;64346;50.820;16.274;2023-04-01T03:36:07;9.10;99.90
36442;DHT22;64346;50.820;16.274;2023-04-01T03:38:35;9.10;99.90
36442;DHT22;64346;50.820;16.274;2023-04-01T03:41:02;9.20;99.90
36442;DHT22;64346;50.820;16.274;2023-04-01T03:43:29;9.10;99.90
36442;DHT22;64346;50.820;16.274;2023-04-01T03:45:57;9.10;99.90
36442;DHT22;64346;50.820;16.274;2023-04-01T03:48:25;9.10;99.90
36442;DHT22;64346;50.820;16.274;2023-04-01T03:50:52;9.20;99.90
36442;DHT22;64346;50.820;16.274;2023-04-01T03:53:19;9.20;99.90
36442;DHT22;64346;50.820;16.274;2023-04-01T03:55:49;9.20;99.90
36442;DHT22;64346;50.820;16.274;2023-04-01T03:58:19;9.20;99.90
36442;DHT22;64346;50.820;16.274;2023-04-01T04:00:49;9.20;99.90
36442;DHT22;64346;50.820;16.274;2023-04-01T04:03:16;9.20;99.90
36442;DHT22;64346;50.820;16.274;2023-04-01T04:05:47;9.20;99.90
36442;DHT22;64346;50.820;16.274;2023-04-01T04:08:15;9.20;99.90
36442;DHT22;64346;50.820;16.274;2023-04-01T04:10:46;9.20;99.90
36442;DHT22;64346;50.820;16.274;2023-04-01T04:13:15;9.20;99.90
36442;DHT22;64346;50.820;16.274;2023-04-01T04:15:43;9.20;99.90
36442;DHT22;64346;50.820;16.274;2023-04-01T04:18:10;9.20;99.90
36442;DHT22;64346;50.820;16.274;2023-04-01T04:20:44;9.20;99.90
36442;DHT22;64346;50.820;16.274;2023-04-01T04:23:11;9.20;99.90
36442;DHT22;64346;50.820;16.274;2023-04-01T04:25:40;9.10;99.90
36442;DHT22;64346;50.820;16.274;2023-04-01T04:28:08;9.10;99.90
36442;DHT22;64346;50.820;16.274;2023-04-01T04:30:35;9.10;99.90
36442;DHT22;64346;50.820;16.274;2023-04-01T04:33:02;9.10;99.90
36442;DHT22;64346;50.820;16.274;2023-04-01T04:35:30;9.10;99.90
36442;DHT22;64346;50.820;16.274;2023-04-01T04:37:57;9.10;99.90
36442;DHT22;64346;50.820;16.274;2023-04-01T04:40:25;9.10;99.90
36442;DHT22;64346;50.820;16.274;2023-04-01T04:42:52;9.10;99.90
36442;DHT22;64346;50.820;16.274;2023-04-01T04:45:19;9.10;99.90
36442;DHT22;64346;50.820;16.274;2023-04-01T04:47:46;9.10;99.90
36442;DHT22;64346;50.820;16.274;2023-04-01T04:50:13;9.10;99.90
36442;DHT22;64346;50.820;16.274;2023-04-01T04:52:43;9.10;99.90
36442;DHT22;64346;50.820;16.274;2023-04-01T04:55:10;9.10;99.90
36442;DHT22;64346;50.820;16.274;2023-04-01T04:57:37;9.10;99.90
36442;DHT22;64346;50.820;16.274;2023-04-01T05:00:05;9.10;99.90
36442;DHT22;64346;50.820;16.274;2023-04-01T05:02:32;9.10;99.90
36442;DHT22;64346;50.820;16.274;2023-04-01T05:05:00;9.10;99.90
36442;DHT22;64346;50.820;16.274;2023-04-01T05:07:29;9.10;99.90
36442;DHT22;64346;50.820;16.274;2023-04-01T05:09:57;9.10;99.90
36442;DHT22;64346;50.820;16.274;2023-04-01T05:12:24;9.10;99.90
36442;DHT22;64346;50.820;16.274;2023-04-01T05:14:51;9.10;99.90
36442;DHT22;64346;50.820;16.274;2023-04-01T05:17:21;9.00;99.90
36442;DHT22;64346;50.820;16.274;2023-04-01T05:19:50;9.00;99.90
36442;DHT22;64346;50.820;16.274;2023-04-01T05:22:18;9.00;99.90
36442;DHT22;64346;50.820;16.274;2023-04-01T05:24:47;9.00;99.90
36442;DHT22;64346;50.820;16.274;2023-04-01T05:27:17;9.10;99.90
36442;DHT22;64346;50.820;16.274;2023-04-01T05:29:47;9.00;99.90
36442;DHT22;64346;50.820;16.274;2023-04-01T05:32:14;9.00;99.90
36442;DHT22;64346;50.820;16.274;2023-04-01T05:34:43;9.00;99.90
36442;DHT22;64346;50.820;16.274;2023-04-01T05:37:11;9.00;99.90
36442;DHT22;64346;50.820;16.274;2023-04-01T05:39:40;9.10;99.90
36442;DHT22;64346;50.820;16.274;2023-04-01T05:42:08;9.10;99.90
36442;DHT22;64346;50.820;16.274;2023-04-01T05:44:36;9.10;99.90
36442;DHT22;64346;50.820;16.274;2023-04-01T05:47:04;9.10;99.90
36442;DHT22;64346;50.820;16.274;2023-04-01T05:49:33;9.10;99.90
36442;DHT22;64346;50.820;16.274;2023-04-01T05:52:00;9.10;99.90
36442;DHT22;64346;50.820;16.274;2023-04-01T05:54:28;9.10;99.90
36442;DHT22;64346;50.820;16.274;2023-04-01T05:56:55;9.10;99.90
36442;DHT22;64346;50.820;16.274;2023-04-01T05:59:22;9.20;99.90
36442;DHT22;64346;50.820;16.274;2023-04-01T06:01:49;9.20;99.90
36442;DHT22;64346;50.820;16.274;2023-04-01T06:04:18;9.20;99.90
36442;DHT22;64346;50.820;16.274;2023-04-01T06:06:48;9.30;99.90
36442;DHT22;64346;50.820;16.274;2023-04-01T06:09:17;9.20;99.90
36442;DHT22;64346;50.820;16.274;2023-04-01T06:11:55;9.30;99.90
36442;DHT22;64346;50.820;16.274;2023-04-01T06:23:35;9.50;99.90
36442;DHT22;64346;50.820;16.274;2023-04-01T06:25:45;9.60;99.90
36442;DHT22;64346;50.820;16.274;2023-04-01T06:32:03;9.60;99.90
36442;DHT22;64346;50.820;16.274;2023-04-01T06:37:05;9.80;99.90
36442;DHT22;64346;50.820;16.274;2023-04-01T06:43:05;10.00;99.90
36442;DHT22;64346;50.820;16.274;2023-04-01T06:45:41;10.20;99.90
36442;DHT22;64346;50.820;16.274;2023-04-01T06:48:33;10.20;99.90
36442;DHT22;64346;50.820;16.274;2023-04-01T06:56:25;10.40;99.90
36442;DHT22;64346;50.820;16.274;2023-04-01T07:01:42;10.40;99.90
36442;DHT22;64346;50.820;16.274;2023-04-01T07:09:14;10.40;99.90
36442;DHT22;64346;50.820;16.274;2023-04-01T07:11:48;10.40;99.90
36442;DHT22;64346;50.820;16.274;2023-04-01T07:14:37;10.60;99.90
36442;DHT22;64346;50.820;16.274;2023-04-01T07:17:27;10.60;99.90
36442;DHT22;64346;50.820;16.274;2023-04-01T07:20:03;10.60;99.90
36442;DHT22;64346;50.820;16.274;2023-04-01T07:22:38;10.70;99.90
36442;DHT22;64346;50.820;16.274;2023-04-01T07:25:18;10.70;99.90
36442;DHT22;64346;50.820;16.274;2023-04-01T07:27:47;10.80;99.90
36442;DHT22;64346;50.820;16.274;2023-04-01T07:30:18;10.80;99.90
36442;DHT22;64346;50.820;16.274;2023-04-01T07:33:11;10.80;99.90
36442;DHT22;64346;50.820;16.274;2023-04-01T07:38:38;10.80;99.90
36442;DHT22;64346;50.820;16.274;2023-04-01T07:41:15;10.90;99.90
36442;DHT22;64346;50.820;16.274;2023-04-01T07:54:32;11.20;99.90
36442;DHT22;64346;50.820;16.274;2023-04-01T08:00:21;11.40;99.90
36442;DHT22;64346;50.820;16.274;2023-04-01T08:14:18;12.10;99.90
36442;DHT22;64346;50.820;16.274;2023-04-01T08:17:15;12.30;99.90
36442;DHT22;64346;50.820;16.274;2023-04-01T08:25:05;12.70;99.90
36442;DHT22;64346;50.820;16.274;2023-04-01T08:27:51;12.60;99.90
36442;DHT22;64346;50.820;16.274;2023-04-01T08:35:31;12.70;99.90
36442;DHT22;64346;50.820;16.274;2023-04-01T08:38:10;13.00;99.90
36442;DHT22;64346;50.820;16.274;2023-04-01T09:00:31;15.50;99.90
36442;DHT22;64346;50.820;16.274;2023-04-01T09:16:38;16.00;99.90
36442;DHT22;64346;50.820;16.274;2023-04-01T09:25:15;16.10;99.90
36442;DHT22;64346;50.820;16.274;2023-04-01T09:43:58;18.40;99.90
36442;DHT22;64346;50.820;16.274;2023-04-01T09:47:01;20.70;99.50
36442;DHT22;64346;50.820;16.274;2023-04-01T09:58:00;23.30;83.30
36442;DHT22;64346;50.820;16.274;2023-04-01T10:06:29;19.20;91.40
36442;DHT22;64346;50.820;16.274;2023-04-01T11:14:53;18.40;93.20
36442;DHT22;64346;50.820;16.274;2023-04-01T11:26:02;19.50;91.40
36442;DHT22;64346;50.820;16.274;2023-04-01T11:28:44;19.20;91.20
36442;DHT22;64346;50.820;16.274;2023-04-01T11:31:50;18.50;91.50
36442;DHT22;64346;50.820;16.274;2023-04-01T11:37:38;17.50;92.80
36442;DHT22;64346;50.820;16.274;2023-04-01T11:46:10;16.40;94.00
36442;DHT22;64346;50.820;16.274;2023-04-01T11:48:49;16.20;94.70
36442;DHT22;64346;50.820;16.274;2023-04-01T11:51:47;16.20;94.90
36442;DHT22;64346;50.820;16.274;2023-04-01T12:03:17;17.40;95.10
36442;DHT22;64346;50.820;16.274;2023-04-01T12:05:58;17.50;94.90
36442;DHT22;64346;50.820;16.274;2023-04-01T12:08:58;17.70;95.00
36442;DHT22;64346;50.820;16.274;2023-04-01T12:22:27;16.90;93.90
36442;DHT22;64346;50.820;16.274;2023-04-01T12:39:31;16.70;94.30
36442;DHT22;64346;50.820;16.274;2023-04-01T12:55:41;16.70;94.10
36442;DHT22;64346;50.820;16.274;2023-04-01T12:58:46;16.60;94.20
36442;DHT22;64346;50.820;16.274;2023-04-01T13:01:25;16.50;94.70
36442;DHT22;64346;50.820;16.274;2023-04-01T13:04:32;16.50;94.70
36442;DHT22;64346;50.820;16.274;2023-04-01T13:09:45;16.50;95.30
36442;DHT22;64346;50.820;16.274;2023-04-01T13:12:44;16.50;95.20
36442;DHT22;64346;50.820;16.274;2023-04-01T13:15:40;16.50;95.10
36442;DHT22;64346;50.820;16.274;2023-04-01T13:21:07;16.60;94.80
36442;DHT22;64346;50.820;16.274;2023-04-01T13:24:00;16.70;94.60
36442;DHT22;64346;50.820;16.274;2023-04-01T13:32:26;16.90;94.50
36442;DHT22;64346;50.820;16.274;2023-04-01T13:41:29;16.60;94.80
36442;DHT22;64346;50.820;16.274;2023-04-01T13:44:19;16.40;95.10
36442;DHT22;64346;50.820;16.274;2023-04-01T14:32:39;14.90;97.10
36442;DHT22;64346;50.820;16.274;2023-04-01T14:41:11;15.10;97.00
36442;DHT22;64346;50.820;16.274;2023-04-01T14:47:27;15.10;97.70
36442;DHT22;64346;50.820;16.274;2023-04-01T14:53:12;15.00;97.90
36442;DHT22;64346;50.820;16.274;2023-04-01T14:58:17;14.90;98.30
36442;DHT22;64346;50.820;16.274;2023-04-01T15:15:32;15.60;97.50
36442;DHT22;64346;50.820;16.274;2023-04-01T15:21:25;15.70;97.50
36442;DHT22;64346;50.820;16.274;2023-04-01T15:24:07;15.70;97.40
36442;DHT22;64346;50.820;16.274;2023-04-01T15:29:54;15.40;98.00
36442;DHT22;64346;50.820;16.274;2023-04-01T15:41:16;15.00;99.20
36442;DHT22;64346;50.820;16.274;2023-04-01T15:46:44;15.00;99.70
36442;DHT22;64346;50.820;16.274;2023-04-01T15:49:38;14.90;97.90
36442;DHT22;64346;50.820;16.274;2023-04-01T16:30:03;14.00;99.90
36442;DHT22;64346;50.820;16.274;2023-04-01T16:48:17;14.00;99.90
36442;DHT22;64346;50.820;16.274;2023-04-01T16:51:04;13.90;99.90
36442;DHT22;64346;50.820;16.274;2023-04-01T16:53:42;13.80;99.90
36442;DHT22;64346;50.820;16.274;2023-04-01T16:56:21;13.50;99.90
36442;DHT22;64346;50.820;16.274;2023-04-01T17:04:39;12.70;99.90
36442;DHT22;64346;50.820;16.274;2023-04-01T17:15:32;11.80;99.90
36442;DHT22;64346;50.820;16.274;2023-04-01T17:20:49;11.60;99.90
36442;DHT22;64346;50.820;16.274;2023-04-01T17:50:02;11.10;99.90
36442;DHT22;64346;50.820;16.274;2023-04-01T17:52:39;11.10;99.90
36442;DHT22;64346;50.820;16.274;2023-04-01T17:55:44;11.00;99.90
36442;DHT22;64346;50.820;16.274;2023-04-01T18:04:07;11.30;99.90
36442;DHT22;64346;50.820;16.274;2023-04-01T18:18:10;11.00;99.90
36442;DHT22;64346;50.820;16.274;2023-04-01T18:26:31;11.10;99.90
36442;DHT22;64346;50.820;16.274;2023-04-01T18:29:36;11.10;99.90
36442;DHT22;64346;50.820;16.274;2023-04-01T18:35:02;11.00;99.90
36442;DHT22;64346;50.820;16.274;2023-04-01T18:37:44;11.00;99.90
36442;DHT22;64346;50.820;16.274;2023-04-01T18:45:58;10.80;99.90
36442;DHT22;64346;50.820;16.274;2023-04-01T18:48:46;10.90;99.90
36442;DHT22;64346;50.820;16.274;2023-04-01T18:54:09;10.90;99.90
36442;DHT22;64346;50.820;16.274;2023-04-01T18:56:40;10.90;99.90
36442;DHT22;64346;50.820;16.274;2023-04-01T18:59:32;10.90;99.90
36442;DHT22;64346;50.820;16.274;2023-04-01T19:02:36;11.00;99.90
36442;DHT22;64346;50.820;16.274;2023-04-01T19:05:12;11.00;99.90
36442;DHT22;64346;50.820;16.274;2023-04-01T19:07:52;11.10;99.90
36442;DHT22;64346;50.820;16.274;2023-04-01T19:10:49;11.10;99.90
36442;DHT22;64346;50.820;16.274;2023-04-01T19:16:40;11.20;99.90
36442;DHT22;64346;50.820;16.274;2023-04-01T19:21:57;11.20;99.90
36442;DHT22;64346;50.820;16.274;2023-04-01T19:27:28;11.30;99.90
36442;DHT22;64346;50.820;16.274;2023-04-01T19:30:27;11.30;99.90
36442;DHT22;64346;50.820;16.274;2023-04-01T19:33:25;11.30;99.90
36442;DHT22;64346;50.820;16.274;2023-04-01T19:36:10;11.30;99.90
36442;DHT22;64346;50.820;16.274;2023-04-01T19:39:00;11.30;99.90
36442;DHT22;64346;50.820;16.274;2023-04-01T19:44:39;11.20;99.90
36442;DHT22;64346;50.820;16.274;2023-04-01T19:47:15;11.20;99.90
36442;DHT22;64346;50.820;16.274;2023-04-01T19:52:36;11.20;99.90
36442;DHT22;64346;50.820;16.274;2023-04-01T19:57:59;11.20;99.90
36442;DHT22;64346;50.820;16.274;2023-04-01T20:00:44;11.10;99.90
36442;DHT22;64346;50.820;16.274;2023-04-01T20:17:23;11.00;99.90
36442;DHT22;64346;50.820;16.274;2023-04-01T20:28:08;11.10;99.90
36442;DHT22;64346;50.820;16.274;2023-04-01T20:40:53;11.00;99.90
36442;DHT22;64346;50.820;16.274;2023-04-01T20:47:13;10.90;99.90
36442;DHT22;64346;50.820;16.274;2023-04-01T20:49:32;10.90;99.90
36442;DHT22;64346;50.820;16.274;2023-04-01T21:17:22;10.90;99.90
36442;DHT22;64346;50.820;16.274;2023-04-01T21:25:44;10.80;99.90
36442;DHT22;64346;50.820;16.274;2023-04-01T21:39:26;10.90;99.90
36442;DHT22;64346;50.820;16.274;2023-04-01T21:56:43;10.60;99.90
36442;DHT22;64346;50.820;16.274;2023-04-01T22:08:20;10.00;99.90
36442;DHT22;64346;50.820;16.274;2023-04-01T22:29:24;9.30;99.90
36442;DHT22;64346;50.820;16.274;2023-04-01T22:37:19;9.20;99.90
36442;DHT22;64346;50.820;16.274;2023-04-01T22:42:47;9.10;99.90
36442;DHT22;64346;50.820;16.274;2023-04-01T22:45:57;9.10;99.90
36442;DHT22;64346;50.820;16.274;2023-04-01T22:56:35;9.00;99.90
36442;DHT22;64346;50.820;16.274;2023-04-01T22:59:17;9.00;99.90
36442;DHT22;64346;50.820;16.274;2023-04-01T23:02:03;9.00;99.90
36442;DHT22;64346;50.820;16.274;2023-04-01T23:04:37;9.00;99.90
36442;DHT22;64346;50.820;16.274;2023-04-01T23:07:38;9.10;99.90
36442;DHT22;64346;50.820;16.274;2023-04-01T23:12:48;9.10;99.90
36442;DHT22;64346;50.820;16.274;2023-04-01T23:15:19;9.00;99.90
36442;DHT22;64346;50.820;16.274;2023-04-01T23:28:53;8.90;99.90
36442;DHT22;64346;50.820;16.274;2023-04-01T23:31:34;8.90;99.90
36442;DHT22;64346;50.820;16.274;2023-04-01T23:36:38;8.80;99.90
36442;DHT22;64346;50.820;16.274;2023-04-01T23:39:19;8.80;99.90
36442;DHT22;64346;50.820;16.274;2023-04-01T23:41:48;8.70;99.90
36442;DHT22;64346;50.820;16.274;2023-04-01T23:44:20;8.70;99.90
36442;DHT22;64346;50.820;16.274;2023-04-01T23:46:48;8.70;99.90
36442;DHT22;64346;50.820;16.274;2023-04-01T23:49:19;8.60;99.90
36442;DHT22;64346;50.820;16.274;2023-04-01T23:51:59;8.60;99.90
36442;DHT22;64346;50.820;16.274;2023-04-01T23:54:55;8.50;99.90
36442;DHT22;64346;50.820;16.274;2023-04-01T23:57:36;8.50;99.90
